<?xml version="1.0" encoding="UTF-8" standalone="no" ?>
<gpx xmlns="http://www.topografix.com/GPX/1/1" xmlns:xsi="http://www.w3.org/2001/XMLSchema-instance" xsi:schemaLocation="http://www.topografix.com/GPX/1/1 http://www.topografix.com/GPX/1/1/gpx.xsd" version="1.1" creator="VisuGPX - https://www.visugpx.com">
  <metadata>
    <name>Lac du Bourget - Conjux</name>
    <desc><![CDATA[Pour se rendre à la plage de Conjux à pied en évitant les routes au maximum. ]]></desc>
  </metadata>
  <trk>
    <name><![CDATA[Lac du Bourget Conjux-15495736]]></name>
    <trkseg>
      <trkpt lat="45.77701" lon="5.81479">
        <ele>385</ele>
        <time>2026-07-14T10:16:59Z</time>
      </trkpt>
      <trkpt lat="45.77739" lon="5.81489">
        <ele>384</ele>
        <time>2026-07-14T10:17:30Z</time>
      </trkpt>
      <trkpt lat="45.77774" lon="5.81502">
        <ele>383</ele>
        <time>2026-07-14T10:17:59Z</time>
      </trkpt>
      <trkpt lat="45.77888" lon="5.81546">
        <ele>381</ele>
        <time>2026-07-14T10:19:33Z</time>
      </trkpt>
      <trkpt lat="45.78067" lon="5.8169">
        <ele>380</ele>
        <time>2026-07-14T10:22:18Z</time>
      </trkpt>
      <trkpt lat="45.78141" lon="5.81752">
        <ele>379</ele>
        <time>2026-07-14T10:23:26Z</time>
      </trkpt>
      <trkpt lat="45.78163" lon="5.81768">
        <ele>380</ele>
        <time>2026-07-14T10:23:46Z</time>
      </trkpt>
      <trkpt lat="45.7818" lon="5.81777">
        <ele>381</ele>
        <time>2026-07-14T10:24:01Z</time>
      </trkpt>
      <trkpt lat="45.78212" lon="5.8178">
        <ele>382</ele>
        <time>2026-07-14T10:24:26Z</time>
      </trkpt>
      <trkpt lat="45.78337" lon="5.81777">
        <ele>386</ele>
        <time>2026-07-14T10:26:06Z</time>
      </trkpt>
      <trkpt lat="45.78409" lon="5.8178">
        <ele>389</ele>
        <time>2026-07-14T10:27:04Z</time>
      </trkpt>
      <trkpt lat="45.7847" lon="5.81778">
        <ele>387</ele>
        <time>2026-07-14T10:27:53Z</time>
      </trkpt>
      <trkpt lat="45.78492" lon="5.81779">
        <ele>386</ele>
        <time>2026-07-14T10:28:11Z</time>
      </trkpt>
      <trkpt lat="45.78504" lon="5.81784">
        <ele>387</ele>
        <time>2026-07-14T10:28:21Z</time>
      </trkpt>
      <trkpt lat="45.78516" lon="5.81792">
        <ele>388</ele>
        <time>2026-07-14T10:28:31Z</time>
      </trkpt>
      <trkpt lat="45.78526" lon="5.81806">
        <ele>390</ele>
        <time>2026-07-14T10:28:42Z</time>
      </trkpt>
      <trkpt lat="45.78536" lon="5.81824">
        <ele>392</ele>
        <time>2026-07-14T10:28:55Z</time>
      </trkpt>
      <trkpt lat="45.78548" lon="5.81862">
        <ele>396</ele>
        <time>2026-07-14T10:29:18Z</time>
      </trkpt>
      <trkpt lat="45.78551" lon="5.81884">
        <ele>397</ele>
        <time>2026-07-14T10:29:31Z</time>
      </trkpt>
      <trkpt lat="45.78551" lon="5.81903">
        <ele>399</ele>
        <time>2026-07-14T10:29:42Z</time>
      </trkpt>
      <trkpt lat="45.78546" lon="5.81952">
        <ele>397</ele>
        <time>2026-07-14T10:30:09Z</time>
      </trkpt>
      <trkpt lat="45.78548" lon="5.8196">
        <ele>396</ele>
        <time>2026-07-14T10:30:14Z</time>
      </trkpt>
      <trkpt lat="45.78546" lon="5.81974">
        <ele>395</ele>
        <time>2026-07-14T10:30:22Z</time>
      </trkpt>
      <trkpt lat="45.7854" lon="5.82003">
        <ele>393</ele>
        <time>2026-07-14T10:30:39Z</time>
      </trkpt>
      <trkpt lat="45.78527" lon="5.82049">
        <ele>382</ele>
        <time>2026-07-14T10:31:07Z</time>
      </trkpt>
      <trkpt lat="45.78526" lon="5.82059">
        <ele>380</ele>
        <time>2026-07-14T10:31:12Z</time>
      </trkpt>
      <trkpt lat="45.78531" lon="5.82053">
        <ele>380</ele>
        <time>2026-07-14T10:31:17Z</time>
      </trkpt>
      <trkpt lat="45.78555" lon="5.82038">
        <ele>379</ele>
        <time>2026-07-14T10:31:38Z</time>
      </trkpt>
      <trkpt lat="45.78569" lon="5.82034">
        <ele>377</ele>
        <time>2026-07-14T10:31:50Z</time>
      </trkpt>
      <trkpt lat="45.7858" lon="5.82037">
        <ele>373</ele>
        <time>2026-07-14T10:31:59Z</time>
      </trkpt>
      <trkpt lat="45.78585" lon="5.82034">
        <ele>373</ele>
        <time>2026-07-14T10:32:03Z</time>
      </trkpt>
      <trkpt lat="45.7859" lon="5.82028">
        <ele>374</ele>
        <time>2026-07-14T10:32:08Z</time>
      </trkpt>
      <trkpt lat="45.78595" lon="5.82017">
        <ele>376</ele>
        <time>2026-07-14T10:32:16Z</time>
      </trkpt>
      <trkpt lat="45.78603" lon="5.82006">
        <ele>378</ele>
        <time>2026-07-14T10:32:25Z</time>
      </trkpt>
      <trkpt lat="45.78625" lon="5.81994">
        <ele>377</ele>
        <time>2026-07-14T10:32:43Z</time>
      </trkpt>
      <trkpt lat="45.78647" lon="5.81974">
        <ele>379</ele>
        <time>2026-07-14T10:33:04Z</time>
      </trkpt>
      <trkpt lat="45.78688" lon="5.81948">
        <ele>379</ele>
        <time>2026-07-14T10:33:40Z</time>
      </trkpt>
      <trkpt lat="45.7872" lon="5.81924">
        <ele>380</ele>
        <time>2026-07-14T10:34:09Z</time>
      </trkpt>
      <trkpt lat="45.78755" lon="5.81894">
        <ele>381</ele>
        <time>2026-07-14T10:34:42Z</time>
      </trkpt>
      <trkpt lat="45.78785" lon="5.81872">
        <ele>380</ele>
        <time>2026-07-14T10:35:09Z</time>
      </trkpt>
      <trkpt lat="45.78817" lon="5.81846">
        <ele>380</ele>
        <time>2026-07-14T10:35:38Z</time>
      </trkpt>
      <trkpt lat="45.78825" lon="5.81841">
        <ele>379</ele>
        <time>2026-07-14T10:35:45Z</time>
      </trkpt>
      <trkpt lat="45.78843" lon="5.81823">
        <ele>379</ele>
        <time>2026-07-14T10:36:03Z</time>
      </trkpt>
      <trkpt lat="45.78847" lon="5.81818">
        <ele>379</ele>
        <time>2026-07-14T10:36:07Z</time>
      </trkpt>
      <trkpt lat="45.78863" lon="5.81781">
        <ele>381</ele>
        <time>2026-07-14T10:36:31Z</time>
      </trkpt>
      <trkpt lat="45.78938" lon="5.81753">
        <ele>373</ele>
        <time>2026-07-14T10:37:33Z</time>
      </trkpt>
      <trkpt lat="45.78949" lon="5.81747">
        <ele>372</ele>
        <time>2026-07-14T10:37:43Z</time>
      </trkpt>
      <trkpt lat="45.78968" lon="5.81708">
        <ele>370</ele>
        <time>2026-07-14T10:38:09Z</time>
      </trkpt>
      <trkpt lat="45.79047" lon="5.81624">
        <ele>360</ele>
        <time>2026-07-14T10:39:28Z</time>
      </trkpt>
      <trkpt lat="45.79127" lon="5.8157">
        <ele>352</ele>
        <time>2026-07-14T10:40:39Z</time>
      </trkpt>
      <trkpt lat="45.7916" lon="5.81576">
        <ele>350</ele>
        <time>2026-07-14T10:41:05Z</time>
      </trkpt>
      <trkpt lat="45.79162" lon="5.81579">
        <ele>350</ele>
        <time>2026-07-14T10:41:08Z</time>
      </trkpt>
      <trkpt lat="45.79218" lon="5.8165">
        <ele>343</ele>
        <time>2026-07-14T10:42:08Z</time>
      </trkpt>
      <trkpt lat="45.7922" lon="5.81661">
        <ele>342</ele>
        <time>2026-07-14T10:42:14Z</time>
      </trkpt>
      <trkpt lat="45.79219" lon="5.81677">
        <ele>340</ele>
        <time>2026-07-14T10:42:23Z</time>
      </trkpt>
      <trkpt lat="45.79202" lon="5.81715">
        <ele>335</ele>
        <time>2026-07-14T10:42:48Z</time>
      </trkpt>
      <trkpt lat="45.79209" lon="5.81729">
        <ele>330</ele>
        <time>2026-07-14T10:42:58Z</time>
      </trkpt>
      <trkpt lat="45.79206" lon="5.81743">
        <ele>327</ele>
        <time>2026-07-14T10:43:06Z</time>
      </trkpt>
      <trkpt lat="45.79136" lon="5.81861">
        <ele>314</ele>
        <time>2026-07-14T10:44:32Z</time>
      </trkpt>
      <trkpt lat="45.79135" lon="5.8189">
        <ele>306</ele>
        <time>2026-07-14T10:44:49Z</time>
      </trkpt>
      <trkpt lat="45.79093" lon="5.8197">
        <ele>292</ele>
        <time>2026-07-14T10:45:45Z</time>
      </trkpt>
      <trkpt lat="45.79077" lon="5.81981">
        <ele>292</ele>
        <time>2026-07-14T10:45:59Z</time>
      </trkpt>
      <trkpt lat="45.79057" lon="5.8201">
        <ele>290</ele>
        <time>2026-07-14T10:46:22Z</time>
      </trkpt>
      <trkpt lat="45.79038" lon="5.82048">
        <ele>286</ele>
        <time>2026-07-14T10:46:48Z</time>
      </trkpt>
      <trkpt lat="45.79026" lon="5.8209">
        <ele>278</ele>
        <time>2026-07-14T10:47:13Z</time>
      </trkpt>
      <trkpt lat="45.7903" lon="5.82099">
        <ele>275</ele>
        <time>2026-07-14T10:47:19Z</time>
      </trkpt>
      <trkpt lat="45.79037" lon="5.8211">
        <ele>271</ele>
        <time>2026-07-14T10:47:27Z</time>
      </trkpt>
      <trkpt lat="45.79042" lon="5.82113">
        <ele>270</ele>
        <time>2026-07-14T10:47:32Z</time>
      </trkpt>
      <trkpt lat="45.79049" lon="5.82131">
        <ele>265</ele>
        <time>2026-07-14T10:47:43Z</time>
      </trkpt>
      <trkpt lat="45.7905" lon="5.82131">
        <ele>265</ele>
        <time>2026-07-14T10:47:44Z</time>
      </trkpt>
      <trkpt lat="45.79058" lon="5.82127">
        <ele>264</ele>
        <time>2026-07-14T10:47:51Z</time>
      </trkpt>
      <trkpt lat="45.7906" lon="5.8212">
        <ele>265</ele>
        <time>2026-07-14T10:47:55Z</time>
      </trkpt>
      <trkpt lat="45.79076" lon="5.82106">
        <ele>264</ele>
        <time>2026-07-14T10:48:10Z</time>
      </trkpt>
      <trkpt lat="45.79096" lon="5.82098">
        <ele>262</ele>
        <time>2026-07-14T10:48:27Z</time>
      </trkpt>
      <trkpt lat="45.79108" lon="5.82096">
        <ele>261</ele>
        <time>2026-07-14T10:48:36Z</time>
      </trkpt>
      <trkpt lat="45.7911" lon="5.82099">
        <ele>260</ele>
        <time>2026-07-14T10:48:39Z</time>
      </trkpt>
      <trkpt lat="45.79109" lon="5.82103">
        <ele>260</ele>
        <time>2026-07-14T10:48:41Z</time>
      </trkpt>
      <trkpt lat="45.79287" lon="5.82016">
        <ele>249</ele>
        <time>2026-07-14T10:51:12Z</time>
      </trkpt>
      <trkpt lat="45.79302" lon="5.82007">
        <ele>248</ele>
        <time>2026-07-14T10:51:25Z</time>
      </trkpt>
      <trkpt lat="45.79313" lon="5.81996">
        <ele>247</ele>
        <time>2026-07-14T10:51:35Z</time>
      </trkpt>
      <trkpt lat="45.7934" lon="5.81965">
        <ele>244</ele>
        <time>2026-07-14T10:52:03Z</time>
      </trkpt>
      <trkpt lat="45.7935" lon="5.81956">
        <ele>243</ele>
        <time>2026-07-14T10:52:12Z</time>
      </trkpt>
      <trkpt lat="45.79363" lon="5.81977">
        <ele>242</ele>
        <time>2026-07-14T10:52:28Z</time>
      </trkpt>
      <trkpt lat="45.79378" lon="5.81996">
        <ele>240</ele>
        <time>2026-07-14T10:52:44Z</time>
      </trkpt>
      <trkpt lat="45.79392" lon="5.82022">
        <ele>237</ele>
        <time>2026-07-14T10:53:02Z</time>
      </trkpt>
      <trkpt lat="45.79397" lon="5.82037">
        <ele>236</ele>
        <time>2026-07-14T10:53:12Z</time>
      </trkpt>
      <trkpt lat="45.79404" lon="5.82094">
        <ele>232</ele>
        <time>2026-07-14T10:53:44Z</time>
      </trkpt>
      <trkpt lat="45.79407" lon="5.82104">
        <ele>232</ele>
        <time>2026-07-14T10:53:50Z</time>
      </trkpt>
      <trkpt lat="45.79404" lon="5.82094">
        <ele>232</ele>
        <time>2026-07-14T10:53:56Z</time>
      </trkpt>
      <trkpt lat="45.79397" lon="5.82037">
        <ele>236</ele>
        <time>2026-07-14T10:54:28Z</time>
      </trkpt>
      <trkpt lat="45.79392" lon="5.82022">
        <ele>237</ele>
        <time>2026-07-14T10:54:38Z</time>
      </trkpt>
      <trkpt lat="45.79378" lon="5.81996">
        <ele>240</ele>
        <time>2026-07-14T10:54:56Z</time>
      </trkpt>
      <trkpt lat="45.79363" lon="5.81977">
        <ele>242</ele>
        <time>2026-07-14T10:55:12Z</time>
      </trkpt>
      <trkpt lat="45.7935" lon="5.81956">
        <ele>243</ele>
        <time>2026-07-14T10:55:28Z</time>
      </trkpt>
      <trkpt lat="45.7934" lon="5.81965">
        <ele>244</ele>
        <time>2026-07-14T10:55:37Z</time>
      </trkpt>
      <trkpt lat="45.79313" lon="5.81996">
        <ele>247</ele>
        <time>2026-07-14T10:56:05Z</time>
      </trkpt>
      <trkpt lat="45.79302" lon="5.82007">
        <ele>248</ele>
        <time>2026-07-14T10:56:16Z</time>
      </trkpt>
      <trkpt lat="45.79287" lon="5.82016">
        <ele>249</ele>
        <time>2026-07-14T10:56:29Z</time>
      </trkpt>
      <trkpt lat="45.79109" lon="5.82103">
        <ele>260</ele>
        <time>2026-07-14T10:58:59Z</time>
      </trkpt>
      <trkpt lat="45.7911" lon="5.82099">
        <ele>260</ele>
        <time>2026-07-14T10:59:02Z</time>
      </trkpt>
      <trkpt lat="45.79108" lon="5.82096">
        <ele>261</ele>
        <time>2026-07-14T10:59:04Z</time>
      </trkpt>
      <trkpt lat="45.79096" lon="5.82098">
        <ele>262</ele>
        <time>2026-07-14T10:59:14Z</time>
      </trkpt>
      <trkpt lat="45.79076" lon="5.82106">
        <ele>264</ele>
        <time>2026-07-14T10:59:30Z</time>
      </trkpt>
      <trkpt lat="45.7906" lon="5.8212">
        <ele>265</ele>
        <time>2026-07-14T10:59:45Z</time>
      </trkpt>
      <trkpt lat="45.79058" lon="5.82127">
        <ele>264</ele>
        <time>2026-07-14T10:59:50Z</time>
      </trkpt>
      <trkpt lat="45.79036" lon="5.82137">
        <ele>266</ele>
        <time>2026-07-14T11:00:08Z</time>
      </trkpt>
      <trkpt lat="45.79007" lon="5.82155">
        <ele>267</ele>
        <time>2026-07-14T11:00:33Z</time>
      </trkpt>
      <trkpt lat="45.78982" lon="5.82171">
        <ele>267</ele>
        <time>2026-07-14T11:00:55Z</time>
      </trkpt>
      <trkpt lat="45.78971" lon="5.8218">
        <ele>268</ele>
        <time>2026-07-14T11:01:05Z</time>
      </trkpt>
      <trkpt lat="45.78945" lon="5.8222">
        <ele>267</ele>
        <time>2026-07-14T11:01:36Z</time>
      </trkpt>
      <trkpt lat="45.78932" lon="5.82236">
        <ele>267</ele>
        <time>2026-07-14T11:01:50Z</time>
      </trkpt>
      <trkpt lat="45.78922" lon="5.82247">
        <ele>268</ele>
        <time>2026-07-14T11:02:00Z</time>
      </trkpt>
      <trkpt lat="45.78922" lon="5.82243">
        <ele>269</ele>
        <time>2026-07-14T11:02:02Z</time>
      </trkpt>
      <trkpt lat="45.7893" lon="5.82224">
        <ele>269</ele>
        <time>2026-07-14T11:02:14Z</time>
      </trkpt>
      <trkpt lat="45.78927" lon="5.82208">
        <ele>272</ele>
        <time>2026-07-14T11:02:24Z</time>
      </trkpt>
      <trkpt lat="45.78912" lon="5.82173">
        <ele>280</ele>
        <time>2026-07-14T11:02:47Z</time>
      </trkpt>
      <trkpt lat="45.78903" lon="5.82167">
        <ele>282</ele>
        <time>2026-07-14T11:02:54Z</time>
      </trkpt>
      <trkpt lat="45.78826" lon="5.82201">
        <ele>290</ele>
        <time>2026-07-14T11:03:59Z</time>
      </trkpt>
      <trkpt lat="45.78826" lon="5.8218">
        <ele>292</ele>
        <time>2026-07-14T11:04:11Z</time>
      </trkpt>
      <trkpt lat="45.78831" lon="5.82159">
        <ele>293</ele>
        <time>2026-07-14T11:04:23Z</time>
      </trkpt>
      <trkpt lat="45.78801" lon="5.82163">
        <ele>299</ele>
        <time>2026-07-14T11:04:47Z</time>
      </trkpt>
      <trkpt lat="45.78788" lon="5.82174">
        <ele>301</ele>
        <time>2026-07-14T11:04:59Z</time>
      </trkpt>
      <trkpt lat="45.78762" lon="5.82215">
        <ele>304</ele>
        <time>2026-07-14T11:05:30Z</time>
      </trkpt>
      <trkpt lat="45.78748" lon="5.82233">
        <ele>306</ele>
        <time>2026-07-14T11:05:45Z</time>
      </trkpt>
      <trkpt lat="45.78733" lon="5.82234">
        <ele>311</ele>
        <time>2026-07-14T11:05:57Z</time>
      </trkpt>
      <trkpt lat="45.78724" lon="5.82239">
        <ele>313</ele>
        <time>2026-07-14T11:06:05Z</time>
      </trkpt>
      <trkpt lat="45.78712" lon="5.82256">
        <ele>316</ele>
        <time>2026-07-14T11:06:19Z</time>
      </trkpt>
      <trkpt lat="45.78697" lon="5.82289">
        <ele>317</ele>
        <time>2026-07-14T11:06:41Z</time>
      </trkpt>
      <trkpt lat="45.78675" lon="5.82324">
        <ele>319</ele>
        <time>2026-07-14T11:07:07Z</time>
      </trkpt>
      <trkpt lat="45.7864" lon="5.8236">
        <ele>322</ele>
        <time>2026-07-14T11:07:41Z</time>
      </trkpt>
      <trkpt lat="45.78621" lon="5.8237">
        <ele>325</ele>
        <time>2026-07-14T11:07:58Z</time>
      </trkpt>
      <trkpt lat="45.7861" lon="5.82374">
        <ele>327</ele>
        <time>2026-07-14T11:08:07Z</time>
      </trkpt>
      <trkpt lat="45.78605" lon="5.82373">
        <ele>328</ele>
        <time>2026-07-14T11:08:11Z</time>
      </trkpt>
      <trkpt lat="45.78572" lon="5.82393">
        <ele>332</ele>
        <time>2026-07-14T11:08:39Z</time>
      </trkpt>
      <trkpt lat="45.78557" lon="5.8239">
        <ele>334</ele>
        <time>2026-07-14T11:08:51Z</time>
      </trkpt>
      <trkpt lat="45.78551" lon="5.82386">
        <ele>336</ele>
        <time>2026-07-14T11:08:57Z</time>
      </trkpt>
      <trkpt lat="45.78549" lon="5.82347">
        <ele>345</ele>
        <time>2026-07-14T11:09:19Z</time>
      </trkpt>
      <trkpt lat="45.78551" lon="5.82309">
        <ele>350</ele>
        <time>2026-07-14T11:09:40Z</time>
      </trkpt>
      <trkpt lat="45.78551" lon="5.82305">
        <ele>351</ele>
        <time>2026-07-14T11:09:42Z</time>
      </trkpt>
      <trkpt lat="45.78554" lon="5.82279">
        <ele>353</ele>
        <time>2026-07-14T11:09:57Z</time>
      </trkpt>
      <trkpt lat="45.78553" lon="5.82259">
        <ele>356</ele>
        <time>2026-07-14T11:10:08Z</time>
      </trkpt>
      <trkpt lat="45.78535" lon="5.8221">
        <ele>360</ele>
        <time>2026-07-14T11:10:39Z</time>
      </trkpt>
      <trkpt lat="45.78531" lon="5.82188">
        <ele>361</ele>
        <time>2026-07-14T11:10:52Z</time>
      </trkpt>
      <trkpt lat="45.78519" lon="5.82144">
        <ele>366</ele>
        <time>2026-07-14T11:11:18Z</time>
      </trkpt>
      <trkpt lat="45.78519" lon="5.82139">
        <ele>367</ele>
        <time>2026-07-14T11:11:21Z</time>
      </trkpt>
      <trkpt lat="45.78517" lon="5.82112">
        <ele>371</ele>
        <time>2026-07-14T11:11:36Z</time>
      </trkpt>
      <trkpt lat="45.78518" lon="5.82093">
        <ele>373</ele>
        <time>2026-07-14T11:11:47Z</time>
      </trkpt>
      <trkpt lat="45.78519" lon="5.82084">
        <ele>374</ele>
        <time>2026-07-14T11:11:52Z</time>
      </trkpt>
      <trkpt lat="45.78526" lon="5.82059">
        <ele>380</ele>
        <time>2026-07-14T11:12:07Z</time>
      </trkpt>
      <trkpt lat="45.78527" lon="5.82049">
        <ele>382</ele>
        <time>2026-07-14T11:12:12Z</time>
      </trkpt>
      <trkpt lat="45.78531" lon="5.82032">
        <ele>386</ele>
        <time>2026-07-14T11:12:22Z</time>
      </trkpt>
      <trkpt lat="45.7854" lon="5.82003">
        <ele>393</ele>
        <time>2026-07-14T11:12:40Z</time>
      </trkpt>
      <trkpt lat="45.78547" lon="5.81967">
        <ele>395</ele>
        <time>2026-07-14T11:13:01Z</time>
      </trkpt>
      <trkpt lat="45.78548" lon="5.8196">
        <ele>396</ele>
        <time>2026-07-14T11:13:05Z</time>
      </trkpt>
      <trkpt lat="45.78546" lon="5.81952">
        <ele>397</ele>
        <time>2026-07-14T11:13:10Z</time>
      </trkpt>
      <trkpt lat="45.78551" lon="5.81903">
        <ele>399</ele>
        <time>2026-07-14T11:13:37Z</time>
      </trkpt>
      <trkpt lat="45.78551" lon="5.81884">
        <ele>397</ele>
        <time>2026-07-14T11:13:48Z</time>
      </trkpt>
      <trkpt lat="45.78548" lon="5.81862">
        <ele>396</ele>
        <time>2026-07-14T11:14:01Z</time>
      </trkpt>
      <trkpt lat="45.78536" lon="5.81824">
        <ele>392</ele>
        <time>2026-07-14T11:14:24Z</time>
      </trkpt>
      <trkpt lat="45.78526" lon="5.81806">
        <ele>390</ele>
        <time>2026-07-14T11:14:37Z</time>
      </trkpt>
      <trkpt lat="45.78516" lon="5.81792">
        <ele>388</ele>
        <time>2026-07-14T11:14:48Z</time>
      </trkpt>
      <trkpt lat="45.78504" lon="5.81784">
        <ele>387</ele>
        <time>2026-07-14T11:14:58Z</time>
      </trkpt>
      <trkpt lat="45.78492" lon="5.81779">
        <ele>386</ele>
        <time>2026-07-14T11:15:08Z</time>
      </trkpt>
      <trkpt lat="45.7847" lon="5.81778">
        <ele>387</ele>
        <time>2026-07-14T11:15:26Z</time>
      </trkpt>
      <trkpt lat="45.78409" lon="5.8178">
        <ele>389</ele>
        <time>2026-07-14T11:16:15Z</time>
      </trkpt>
      <trkpt lat="45.78337" lon="5.81777">
        <ele>386</ele>
        <time>2026-07-14T11:17:13Z</time>
      </trkpt>
      <trkpt lat="45.78212" lon="5.8178">
        <ele>382</ele>
        <time>2026-07-14T11:18:53Z</time>
      </trkpt>
      <trkpt lat="45.7818" lon="5.81777">
        <ele>381</ele>
        <time>2026-07-14T11:19:18Z</time>
      </trkpt>
      <trkpt lat="45.78163" lon="5.81768">
        <ele>380</ele>
        <time>2026-07-14T11:19:33Z</time>
      </trkpt>
      <trkpt lat="45.78141" lon="5.81752">
        <ele>379</ele>
        <time>2026-07-14T11:19:53Z</time>
      </trkpt>
      <trkpt lat="45.78067" lon="5.8169">
        <ele>380</ele>
        <time>2026-07-14T11:21:01Z</time>
      </trkpt>
      <trkpt lat="45.77888" lon="5.81546">
        <ele>381</ele>
        <time>2026-07-14T11:23:46Z</time>
      </trkpt>
      <trkpt lat="45.77774" lon="5.81502">
        <ele>383</ele>
        <time>2026-07-14T11:25:20Z</time>
      </trkpt>
      <trkpt lat="45.77739" lon="5.81489">
        <ele>384</ele>
        <time>2026-07-14T11:25:49Z</time>
      </trkpt>
      <trkpt lat="45.777" lon="5.81478">
        <ele>386</ele>
        <time>2026-07-14T11:26:21Z</time>
      </trkpt>
    </trkseg>
  </trk>
</gpx>